Time;durP1;ratioP1;P1;durP2;ratioP2;P2;SDS_P1;SDS_P2;PMS_P1;PMS_P2;Temp;Humidity;BMP_temperature;BMP_pressure;BME280_temperature;BME280_humidity;BME280_pressure;Samples;Min_cycle;Max_cycle;Signal;HPM_P1;HPM_P2
2022/05/31 06:02:33;;;;;;;7.90;3.92;;;;;;;;;;10587659;27;20140;-83
2022/05/31 06:07:47;;;;;;;5.05;3.25;;;;;;;;;;10585104;28;20031;-84
2022/05/31 07:04:36;;;;;;;1.70;1.30;;;;;;;;;;10597775;28;20059;-81
2022/05/31 07:09:37;;;;;;;3.40;2.05;;;;;;;;;;10556308;28;20032;-81
2022/05/31 07:14:38;;;;;;;2.60;1.85;;;;;;;;;;10534722;28;20088;-82
2022/05/31 07:19:42;;;;;;;3.65;2.10;;;;;;;;;;10536964;28;20028;-81
2022/05/31 07:24:43;;;;;;;4.03;2.47;;;;;;;;;;10549056;28;20028;-81
2022/05/31 07:29:44;;;;;;;3.53;2.35;;;;;;;;;;10546412;28;20205;-83
2022/05/31 07:34:45;;;;;;;3.30;2.13;;;;;;;;;;10544255;28;20068;-82
2022/05/31 07:39:48;;;;;;;3.20;2.22;;;;;;;;;;10545588;28;20035;-82
2022/05/31 07:44:53;;;;;;;3.63;2.22;;;;;;;;;;10545665;28;20091;-83
2022/05/31 07:49:54;;;;;;;4.47;3.13;;;;;;;;;;10552349;28;20044;-82
2022/05/31 07:54:55;;;;;;;4.80;2.35;;;;;;;;;;10566057;28;20024;-83
2022/05/31 07:59:56;;;;;;;3.00;2.15;;;;;;;;;;10571677;28;20039;-84
2022/05/31 08:04:57;;;;;;;3.05;2.10;;;;;;;;;;10571633;28;20054;-84
2022/05/31 08:09:59;;;;;;;4.57;2.55;;;;;;;;;;10556239;28;20058;-83
2022/05/31 08:15:00;;;;;;;4.63;2.70;;;;;;;;;;10534265;28;20016;-83
2022/05/31 08:20:03;;;;;;;3.75;2.88;;;;;;;;;;10535376;28;20084;-83
2022/05/31 08:25:04;;;;;;;3.80;2.60;;;;;;;;;;10534189;28;20517;-83
2022/05/31 08:30:06;;;;;;;5.93;2.78;;;;;;;;;;10534621;28;20028;-83
2022/05/31 08:35:07;;;;;;;3.58;2.20;;;;;;;;;;10542662;28;20028;-82
2022/05/31 08:40:09;;;;;;;5.72;3.88;;;;;;;;;;10542428;28;20371;-84
2022/05/31 08:45:23;;;;;;;6.63;3.35;;;;;;;;;;10537824;28;20028;-82
2022/05/31 09:01:39;;;;;;;3.47;2.85;;;;;;;;;;10554204;28;20397;-82
2022/05/31 09:06:44;;;;;;;9.50;5.93;;;;;;;;;;10534102;28;20504;-82
2022/05/31 09:11:45;;;;;;;6.18;4.45;;;;;;;;;;10532204;28;20081;-82
2022/05/31 09:17:08;;;;;;;5.53;3.95;;;;;;;;;;10549852;28;20070;-83
2022/05/31 09:22:09;;;;;;;6.68;4.15;;;;;;;;;;10532849;28;20501;-83
2022/05/31 09:27:12;;;;;;;5.03;3.50;;;;;;;;;;10533523;28;20081;-81
2022/05/31 09:32:44;;;;;;;5.43;3.90;;;;;;;;;;10531513;28;20039;-81
2022/05/31 09:38:10;;;;;;;5.72;3.78;;;;;;;;;;10542103;28;20051;-83
2022/05/31 09:43:31;;;;;;;5.63;3.53;;;;;;;;;;10535013;28;20023;-83
2022/05/31 09:48:32;;;;;;;6.78;6.07;;;;;;;;;;10535659;28;20118;-82
2022/05/31 09:59:07;;;;;;;5.13;3.35;;;;;;;;;;10548802;28;20036;-83
2022/05/31 10:04:09;;;;;;;4.28;3.25;;;;;;;;;;10545078;28;20101;-82
2022/05/31 10:09:18;;;;;;;5.90;4.45;;;;;;;;;;10528244;28;20028;-82
2022/05/31 10:14:25;;;;;;;9.35;3.90;;;;;;;;;;10551824;28;20043;-83
2022/05/31 10:19:28;;;;;;;6.10;3.25;;;;;;;;;;10534190;28;20024;-84
2022/05/31 10:24:29;;;;;;;4.93;3.22;;;;;;;;;;10530630;28;20393;-83
2022/05/31 10:29:33;;;;;;;6.13;4.65;;;;;;;;;;10530746;28;20042;-83
2022/05/31 10:34:34;;;;;;;7.07;4.90;;;;;;;;;;10528785;28;20043;-82
2022/05/31 10:39:36;;;;;;;4.53;2.95;;;;;;;;;;10527669;28;20020;-82
2022/05/31 10:44:50;;;;;;;7.45;5.25;;;;;;;;;;10557706;28;20012;-82
2022/05/31 10:49:51;;;;;;;5.97;4.60;;;;;;;;;;10577821;28;20031;-79
2022/05/31 10:55:04;;;;;;;5.28;4.05;;;;;;;;;;10578862;28;20013;-79
2022/05/31 11:00:15;;;;;;;4.53;4.00;;;;;;;;;;10549555;28;20127;-81
2022/05/31 11:05:17;;;;;;;4.95;3.42;;;;;;;;;;10537810;28;20092;-81
2022/05/31 11:15:53;;;;;;;4.50;3.78;;;;;;;;;;10555810;28;20036;-82
2022/05/31 11:21:21;;;;;;;5.97;4.00;;;;;;;;;;10539523;28;20036;-83
2022/05/31 11:26:34;;;;;;;4.43;3.15;;;;;;;;;;10534397;28;20043;-83
2022/05/31 11:31:39;;;;;;;4.03;3.17;;;;;;;;;;10536777;28;20078;-83
2022/05/31 11:36:58;;;;;;;3.35;2.53;;;;;;;;;;10537492;28;20027;-83
2022/05/31 11:42:08;;;;;;;4.20;3.13;;;;;;;;;;10556716;28;20028;-84
2022/05/31 11:47:24;;;;;;;3.43;2.83;;;;;;;;;;10540132;28;20032;-82
2022/05/31 11:52:43;;;;;;;4.30;3.33;;;;;;;;;;10539319;28;20035;-82
2022/05/31 11:57:44;;;;;;;7.28;4.50;;;;;;;;;;10552907;28;20103;-80
2022/05/31 12:02:49;;;;;;;6.18;3.25;;;;;;;;;;10536061;28;20044;-81
2022/05/31 12:07:56;;;;;;;3.70;2.95;;;;;;;;;;10536957;28;20119;-80
2022/05/31 12:12:58;;;;;;;7.18;3.20;;;;;;;;;;10537409;28;20040;-81
2022/05/31 12:18:01;;;;;;;12.40;8.70;;;;;;;;;;10537075;28;20024;-81
2022/05/31 12:23:23;;;;;;;3.53;3.22;;;;;;;;;;10558439;28;20093;-81
2022/05/31 12:28:26;;;;;;;5.70;4.35;;;;;;;;;;10536127;28;20051;-85
2022/05/31 12:33:46;;;;;;;4.00;2.78;;;;;;;;;;10532557;28;20020;-85
2022/05/31 12:39:02;;;;;;;6.85;3.25;;;;;;;;;;10531088;28;20035;-85
2022/05/31 12:44:08;;;;;;;5.63;2.90;;;;;;;;;;10532479;28;20486;-85
2022/05/31 12:49:11;;;;;;;4.38;2.40;;;;;;;;;;10532251;28;20028;-85
2022/05/31 12:54:17;;;;;;;4.88;2.53;;;;;;;;;;10549346;28;20056;-85
2022/05/31 12:59:38;;;;;;;4.38;2.65;;;;;;;;;;10531843;28;20032;-84
2022/05/31 13:04:51;;;;;;;3.40;2.20;;;;;;;;;;10527866;28;20035;-84
2022/05/31 13:10:12;;;;;;;3.97;2.30;;;;;;;;;;10528909;28;20024;-84
2022/05/31 13:20:43;;;;;;;2.97;2.50;;;;;;;;;;10549259;28;20080;-84
2022/05/31 13:25:52;;;;;;;5.93;4.68;;;;;;;;;;10529355;28;20351;-85
2022/05/31 13:30:56;;;;;;;4.88;3.28;;;;;;;;;;10529659;28;20031;-84
2022/05/31 13:36:09;;;;;;;2.88;2.20;;;;;;;;;;10548517;28;20031;-84
2022/05/31 13:41:12;;;;;;;4.13;2.05;;;;;;;;;;10530377;28;20032;-84
2022/05/31 13:46:24;;;;;;;2.25;1.60;;;;;;;;;;10529830;28;20024;-86
2022/05/31 13:51:26;;;;;;;3.88;3.20;;;;;;;;;;10530081;28;20217;-84
2022/05/31 13:56:27;;;;;;;4.18;2.65;;;;;;;;;;10527046;28;20020;-83
2022/05/31 14:01:31;;;;;;;3.10;2.38;;;;;;;;;;10528147;28;20522;-85
2022/05/31 14:06:36;;;;;;;3.50;2.97;;;;;;;;;;10545817;28;20036;-85
2022/05/31 14:11:44;;;;;;;5.55;2.63;;;;;;;;;;10528612;28;20020;-84
2022/05/31 14:16:45;;;;;;;3.53;2.80;;;;;;;;;;10545071;28;20032;-82
2022/05/31 14:21:47;;;;;;;4.47;2.80;;;;;;;;;;10540287;28;20028;-82
2022/05/31 14:26:49;;;;;;;3.22;2.42;;;;;;;;;;10567229;28;20101;-83
2022/05/31 14:31:53;;;;;;;4.13;3.10;;;;;;;;;;10544446;28;20028;-81
2022/05/31 14:36:58;;;;;;;5.78;4.05;;;;;;;;;;10540765;28;20028;-81
2022/05/31 14:42:00;;;;;;;3.60;3.15;;;;;;;;;;10543665;28;20020;-80
2022/05/31 14:47:13;;;;;;;4.57;2.80;;;;;;;;;;10542939;28;20031;-81
2022/05/31 14:52:25;;;;;;;5.32;2.80;;;;;;;;;;10560981;28;20047;-81
2022/05/31 14:58:37;;;;;;;3.45;2.53;;;;;;;;;;10557645;28;20501;-79
2022/05/31 15:02:51;;;;;;;3.95;2.88;;;;;;;;;;10563743;28;20032;-80
2022/05/31 15:07:54;;;;;;;6.60;2.92;;;;;;;;;;10563286;28;20028;-80
2022/05/31 15:23:36;;;;;;;3.95;2.50;;;;;;;;;;10559147;28;20059;-84
2022/05/31 15:28:37;;;;;;;7.30;3.70;;;;;;;;;;10542432;28;20040;-82
2022/05/31 15:33:39;;;;;;;6.10;3.55;;;;;;;;;;10560810;28;20478;-82
2022/05/31 15:38:40;;;;;;;2.78;2.25;;;;;;;;;;10567174;28;20024;-82
2022/05/31 15:43:53;;;;;;;5.50;2.97;;;;;;;;;;10542647;28;20016;-82
2022/05/31 15:48:55;;;;;;;3.83;2.65;;;;;;;;;;10555564;28;20050;-82
2022/05/31 15:53:57;;;;;;;5.32;3.17;;;;;;;;;;10575409;28;20067;-84
2022/05/31 15:58:58;;;;;;;5.05;2.85;;;;;;;;;;10574999;28;20051;-82
2022/05/31 16:04:01;;;;;;;5.40;3.03;;;;;;;;;;10576237;28;20023;-83
2022/05/31 16:09:12;;;;;;;5.20;2.40;;;;;;;;;;10576030;28;20043;-85
2022/05/31 16:14:28;;;;;;;8.32;2.08;;;;;;;;;;10580199;28;20028;-84
2022/05/31 16:19:35;;;;;;;4.25;1.95;;;;;;;;;;10567256;28;20020;-84
2022/05/31 16:24:42;;;;;;;5.45;1.92;;;;;;;;;;10545349;28;20031;-85
2022/05/31 16:29:48;;;;;;;5.70;2.40;;;;;;;;;;10543096;28;20020;-83
2022/05/31 16:34:50;;;;;;;4.70;2.20;;;;;;;;;;10536282;28;20084;-82
2022/05/31 16:45:12;;;;;;;3.30;2.13;;;;;;;;;;10551120;28;20036;-81
2022/05/31 16:50:14;;;;;;;5.28;2.50;;;;;;;;;;10536059;28;20058;-81
2022/05/31 16:55:17;;;;;;;3.33;1.83;;;;;;;;;;10559613;28;20095;-82
2022/05/31 17:00:19;;;;;;;11.57;4.57;;;;;;;;;;10537889;28;20100;-83
2022/05/31 17:05:20;;;;;;;2.67;2.10;;;;;;;;;;10533600;28;20383;-82
2022/05/31 17:15:41;;;;;;;3.45;2.25;;;;;;;;;;10551781;28;20036;-82
2022/05/31 17:20:44;;;;;;;5.18;3.10;;;;;;;;;;10532581;28;20075;-82
2022/05/31 17:25:50;;;;;;;3.95;2.20;;;;;;;;;;10531159;28;20032;-82
2022/05/31 17:30:51;;;;;;;2.50;1.70;;;;;;;;;;10535591;28;20470;-82
2022/05/31 17:35:59;;;;;;;4.80;2.80;;;;;;;;;;10550765;28;20073;-81
2022/05/31 17:41:00;;;;;;;3.38;1.83;;;;;;;;;;10539683;28;20024;-82
2022/05/31 17:46:01;;;;;;;4.93;2.42;;;;;;;;;;10530625;28;20028;-84
2022/05/31 17:51:02;;;;;;;2.80;1.70;;;;;;;;;;10531318;28;20054;-83
2022/05/31 17:56:05;;;;;;;2.58;1.70;;;;;;;;;;10531492;28;20024;-83
2022/05/31 18:01:06;;;;;;;3.28;2.03;;;;;;;;;;10550246;28;20062;-83
2022/05/31 18:06:09;;;;;;;2.65;1.70;;;;;;;;;;10529831;28;20028;-84
2022/05/31 18:11:10;;;;;;;2.65;1.80;;;;;;;;;;10529150;28;20028;-83
2022/05/31 18:16:12;;;;;;;4.07;2.10;;;;;;;;;;10529192;28;20089;-83
2022/05/31 18:21:13;;;;;;;3.72;1.77;;;;;;;;;;10530613;28;20118;-81
2022/05/31 18:26:14;;;;;;;2.92;2.00;;;;;;;;;;10530425;28;20036;-81
2022/05/31 18:31:16;;;;;;;2.72;1.55;;;;;;;;;;10528921;28;20031;-81
2022/05/31 18:36:23;;;;;;;2.40;1.63;;;;;;;;;;10528843;28;20028;-80
2022/05/31 18:41:26;;;;;;;1.80;1.45;;;;;;;;;;10548216;28;20066;-80
2022/05/31 18:46:27;;;;;;;2.03;1.60;;;;;;;;;;10550638;28;20039;-81
2022/05/31 18:51:28;;;;;;;3.35;1.70;;;;;;;;;;10547192;28;20100;-81
2022/05/31 18:56:29;;;;;;;2.17;1.70;;;;;;;;;;10543323;28;20028;-81
2022/05/31 19:01:32;;;;;;;3.75;1.98;;;;;;;;;;10527673;28;20048;-81
2022/05/31 19:06:33;;;;;;;3.95;1.70;;;;;;;;;;10529854;28;20126;-81
2022/05/31 19:11:34;;;;;;;2.60;2.03;;;;;;;;;;10537496;28;20032;-84
2022/05/31 19:16:37;;;;;;;2.38;1.90;;;;;;;;;;10541207;28;20020;-84
2022/05/31 19:21:39;;;;;;;3.28;1.70;;;;;;;;;;10541279;28;20034;-84
2022/05/31 19:26:40;;;;;;;5.05;2.30;;;;;;;;;;10537769;28;20020;-84
